createdAt,value
2023-02-28T00:01:32.585Z,2.50
2023-02-28T00:04:01.533Z,2.50
2023-02-28T00:06:29.702Z,2.40
2023-02-28T00:08:59.641Z,2.40
2023-02-28T00:11:28.251Z,2.40
2023-02-28T00:13:57.056Z,2.40
2023-02-28T00:16:25.584Z,2.40
2023-02-28T00:18:54.262Z,2.40
2023-02-28T00:21:22.849Z,2.30
2023-02-28T00:23:50.993Z,2.40
2023-02-28T00:26:22.058Z,2.40
2023-02-28T00:28:50.575Z,2.30
2023-02-28T00:31:19.244Z,2.30
2023-02-28T00:33:47.910Z,2.30
2023-02-28T00:36:16.021Z,2.30
2023-02-28T00:38:44.599Z,2.30
2023-02-28T00:41:12.740Z,2.30
2023-02-28T00:43:42.460Z,2.20
2023-02-28T00:46:11.201Z,2.20
2023-02-28T00:48:39.304Z,2.20
2023-02-28T00:51:07.949Z,2.20
2023-02-28T00:53:36.077Z,2.20
2023-02-28T00:56:04.750Z,2.20
2023-02-28T00:58:32.828Z,2.10
2023-02-28T01:01:02.433Z,2.10
2023-02-28T01:03:31.053Z,2.10
2023-02-28T01:05:59.165Z,2.10
2023-02-28T01:08:28.493Z,2.10
2023-02-28T01:10:56.698Z,2.00
2023-02-28T01:13:26.763Z,2.00
2023-02-28T01:15:57.494Z,2.00
2023-02-28T01:18:27.655Z,2.00
2023-02-28T01:20:56.248Z,2.00
2023-02-28T01:23:25.315Z,2.00
2023-02-28T01:25:54.422Z,2.00
2023-02-28T01:28:22.584Z,1.90
2023-02-28T01:30:51.799Z,2.00
2023-02-28T01:33:20.423Z,1.90
2023-02-28T01:35:50.081Z,1.90
2023-02-28T01:38:23.107Z,1.90
2023-02-28T01:40:52.685Z,1.90
2023-02-28T01:43:25.619Z,1.90
2023-02-28T01:45:54.842Z,1.90
2023-02-28T01:48:28.448Z,1.90
2023-02-28T01:51:01.845Z,1.80
2023-02-28T01:53:34.422Z,1.80
2023-02-28T01:56:06.462Z,1.90
2023-02-28T01:58:34.919Z,1.80
2023-02-28T02:01:04.423Z,1.80
2023-02-28T02:03:33.122Z,1.80
2023-02-28T02:06:04.586Z,1.90
2023-02-28T02:08:32.696Z,1.80
2023-02-28T02:11:03.585Z,1.80
2023-02-28T02:13:42.739Z,1.80
2023-02-28T02:16:25.708Z,1.80
2023-02-28T02:18:56.505Z,1.80
2023-02-28T02:21:59.196Z,1.80
2023-02-28T02:28:53.641Z,1.80
2023-02-28T02:31:42.286Z,1.80
2023-02-28T02:34:30.502Z,1.80
2023-02-28T02:37:06.850Z,1.80
2023-02-28T02:39:44.675Z,1.80
2023-02-28T02:42:17.765Z,1.80
2023-02-28T02:44:51.836Z,1.70
2023-02-28T02:47:22.720Z,1.70
2023-02-28T02:49:55.180Z,1.70
2023-02-28T02:52:27.211Z,1.70
2023-02-28T02:54:59.209Z,1.70
2023-02-28T02:57:33.366Z,1.70
2023-02-28T03:00:06.243Z,1.60
2023-02-28T03:02:35.333Z,1.70
2023-02-28T03:05:10.194Z,1.60
2023-02-28T03:07:38.247Z,1.60
2023-02-28T03:10:45.223Z,1.60
2023-02-28T03:13:37.259Z,1.70
2023-02-28T03:16:21.907Z,1.60
2023-02-28T03:18:59.110Z,1.70
2023-02-28T03:21:35.053Z,1.70
2023-02-28T03:24:09.698Z,1.60
2023-02-28T03:26:45.438Z,1.60
2023-02-28T03:29:20.439Z,1.60
2023-02-28T03:31:53.768Z,1.60
2023-02-28T03:34:27.022Z,1.60
2023-02-28T03:37:04.072Z,1.60
2023-02-28T03:39:39.609Z,1.60
2023-02-28T03:42:11.931Z,1.60
2023-02-28T03:44:43.508Z,1.60
2023-02-28T03:47:15.020Z,1.60
2023-02-28T03:49:48.696Z,1.60
2023-02-28T03:52:22.294Z,1.50
2023-02-28T03:54:55.077Z,1.50
2023-02-28T03:57:29.641Z,1.50
2023-02-28T04:00:02.294Z,1.50
2023-02-28T04:02:30.826Z,1.50
2023-02-28T04:04:58.917Z,1.50
2023-02-28T04:07:31.865Z,1.50
2023-02-28T04:10:00.510Z,1.50
2023-02-28T04:12:29.115Z,1.50
2023-02-28T04:14:57.803Z,1.50
2023-02-28T04:17:25.925Z,1.50
2023-02-28T04:19:55.519Z,1.50
2023-02-28T04:22:23.589Z,1.50
2023-02-28T04:24:55.149Z,1.50
2023-02-28T04:27:23.630Z,1.50
2023-02-28T04:29:52.178Z,1.50
2023-02-28T04:32:20.359Z,1.50
2023-02-28T04:34:49.006Z,1.50
2023-02-28T04:37:17.217Z,1.50
2023-02-28T04:39:46.151Z,1.50
2023-02-28T04:42:16.215Z,1.50
2023-02-28T04:44:44.369Z,1.50
2023-02-28T04:47:12.970Z,1.50
2023-02-28T04:49:42.482Z,1.50
2023-02-28T04:52:11.948Z,1.50
2023-02-28T04:54:41.381Z,1.60
2023-02-28T04:57:09.963Z,1.60
2023-02-28T04:59:39.610Z,1.60
2023-02-28T05:02:09.096Z,1.60
2023-02-28T05:04:38.171Z,1.60
2023-02-28T05:07:06.823Z,1.60
2023-02-28T05:09:35.732Z,1.60
2023-02-28T05:12:04.794Z,1.60
2023-02-28T05:14:32.887Z,1.60
2023-02-28T05:17:02.834Z,1.50
2023-02-28T05:19:30.961Z,1.50
2023-02-28T05:21:59.737Z,1.50
2023-02-28T05:24:27.920Z,1.60
2023-02-28T05:26:57.094Z,1.50
2023-02-28T05:29:25.760Z,1.50
2023-02-28T05:31:54.098Z,1.50
2023-02-28T05:34:24.171Z,1.50
2023-02-28T05:36:52.290Z,1.50
2023-02-28T05:39:20.382Z,1.50
2023-02-28T05:41:48.574Z,1.60
2023-02-28T05:44:17.934Z,1.50
2023-02-28T05:46:46.562Z,1.50
2023-02-28T05:49:15.103Z,1.60
2023-02-28T05:51:44.676Z,1.50
2023-02-28T05:54:14.008Z,1.50
2023-02-28T05:56:45.038Z,1.50
2023-02-28T05:59:13.266Z,1.50
2023-02-28T06:01:42.806Z,1.50
2023-02-28T06:04:29.248Z,1.60
2023-02-28T06:07:00.800Z,1.50
2023-02-28T06:09:28.927Z,1.60
2023-02-28T06:11:57.105Z,1.60
2023-02-28T06:14:25.219Z,1.60
2023-02-28T06:16:53.469Z,1.60
2023-02-28T06:19:23.823Z,1.60
2023-02-28T06:21:53.606Z,1.60
2023-02-28T06:24:23.677Z,1.60
2023-02-28T06:26:51.897Z,1.60
2023-02-28T06:29:20.482Z,1.60
2023-02-28T06:31:49.116Z,1.60
2023-02-28T06:34:18.963Z,1.60
2023-02-28T06:36:47.042Z,1.60
2023-02-28T06:39:15.606Z,1.70
2023-02-28T06:41:54.937Z,1.70
2023-02-28T06:44:24.624Z,1.70
2023-02-28T06:46:53.249Z,1.70
2023-02-28T06:49:21.328Z,1.70
2023-02-28T06:51:50.064Z,1.70
2023-02-28T06:54:18.628Z,1.70
2023-02-28T06:56:48.842Z,1.80
2023-02-28T06:59:17.744Z,1.70
2023-02-28T07:01:46.309Z,1.80
2023-02-28T07:04:15.668Z,1.80
2023-02-28T07:06:43.938Z,1.80
2023-02-28T07:09:12.983Z,1.80
2023-02-28T07:11:41.764Z,1.80
2023-02-28T07:14:12.119Z,1.90
2023-02-28T07:16:40.260Z,1.90
2023-02-28T07:19:08.837Z,1.90
2023-02-28T07:21:36.954Z,1.90
2023-02-28T07:24:05.848Z,1.90
2023-02-28T07:26:35.236Z,2.00
2023-02-28T07:29:03.865Z,2.00
2023-02-28T07:31:33.406Z,2.00
2023-02-28T07:34:02.086Z,2.00
2023-02-28T07:36:30.657Z,2.10
2023-02-28T07:39:00.224Z,2.10
2023-02-28T07:41:29.505Z,2.20
2023-02-28T07:43:58.613Z,2.20
2023-02-28T07:46:30.163Z,2.20
2023-02-28T07:49:01.108Z,2.30
2023-02-28T07:51:30.396Z,2.30
2023-02-28T07:53:59.328Z,2.40
2023-02-28T07:56:28.044Z,2.40
2023-02-28T07:58:57.100Z,2.40
2023-02-28T08:01:25.348Z,2.40
2023-02-28T08:03:55.267Z,2.50
2023-02-28T08:06:27.459Z,2.50
2023-02-28T08:08:57.231Z,2.60
2023-02-28T08:11:25.882Z,2.60
2023-02-28T08:13:54.000Z,2.70
2023-02-28T08:16:23.806Z,2.70
2023-02-28T08:18:52.612Z,2.80
2023-02-28T08:21:22.132Z,2.80
2023-02-28T08:23:53.214Z,2.80
2023-02-28T08:26:22.007Z,2.90
2023-02-28T08:28:50.621Z,3.00
2023-02-28T08:31:19.789Z,3.00
2023-02-28T08:33:49.657Z,3.10
2023-02-28T08:36:18.514Z,3.10
2023-02-28T08:38:47.431Z,3.20
2023-02-28T08:41:16.951Z,3.20
2023-02-28T08:43:45.580Z,3.30
2023-02-28T08:46:15.704Z,3.30
2023-02-28T08:48:45.251Z,3.40
2023-02-28T08:51:17.270Z,3.40
2023-02-28T08:53:45.933Z,3.50
2023-02-28T08:56:17.671Z,3.50
2023-02-28T08:58:47.846Z,3.60
2023-02-28T09:01:17.779Z,3.60
2023-02-28T09:03:47.928Z,3.60
2023-02-28T09:06:17.530Z,3.70
2023-02-28T09:08:46.316Z,3.70
2023-02-28T09:11:16.886Z,3.80
2023-02-28T09:13:45.249Z,3.90
2023-02-28T09:16:15.338Z,3.90
2023-02-28T09:18:44.065Z,4.00
2023-02-28T09:21:16.925Z,4.00
2023-02-28T09:23:46.419Z,4.10
2023-02-28T09:26:18.877Z,4.10
2023-02-28T09:28:47.170Z,4.20
2023-02-28T09:31:16.925Z,4.20
2023-02-28T09:33:45.559Z,4.30
2023-02-28T09:36:14.165Z,4.30
2023-02-28T09:38:44.172Z,4.40
2023-02-28T09:41:18.102Z,4.40
2023-02-28T09:43:50.663Z,4.50
2023-02-28T09:46:29.356Z,4.50
2023-02-28T09:49:00.310Z,4.60
2023-02-28T09:51:50.228Z,4.60
2023-02-28T09:54:21.538Z,4.60
2023-02-28T09:56:54.305Z,4.70
2023-02-28T09:59:39.044Z,4.70
2023-02-28T10:02:17.320Z,4.80
2023-02-28T10:04:56.413Z,4.80
2023-02-28T10:07:40.313Z,4.90
2023-02-28T10:10:23.579Z,4.90
2023-02-28T10:12:56.269Z,5.00
2023-02-28T10:15:27.814Z,5.00
2023-02-28T10:18:08.359Z,5.10
2023-02-28T10:20:41.492Z,5.10
2023-02-28T10:23:15.114Z,5.20
2023-02-28T10:25:49.535Z,5.30
2023-02-28T10:28:20.033Z,5.40
2023-02-28T10:30:52.054Z,5.40
2023-02-28T10:33:26.542Z,5.50
2023-02-28T10:35:55.559Z,5.60
2023-02-28T10:38:26.801Z,5.70
2023-02-28T10:41:06.352Z,5.70
2023-02-28T10:43:39.366Z,5.80
2023-02-28T10:46:16.398Z,5.90
2023-02-28T10:48:49.412Z,6.00
2023-02-28T10:51:20.482Z,6.10
2023-02-28T10:54:00.975Z,6.20
2023-02-28T10:56:32.109Z,6.30
2023-02-28T10:59:04.340Z,6.40
2023-02-28T11:01:41.664Z,6.40
2023-02-28T11:04:22.509Z,6.50
2023-02-28T11:07:00.168Z,6.60
2023-02-28T11:09:32.983Z,6.70
2023-02-28T11:12:01.826Z,6.80
2023-02-28T11:14:35.687Z,6.90
2023-02-28T11:17:16.300Z,7.00
2023-02-28T11:19:55.665Z,7.10
2023-02-28T11:22:29.723Z,7.20
2023-02-28T11:25:03.877Z,7.30
2023-02-28T11:27:50.975Z,7.40
2023-02-28T11:30:33.525Z,7.50
2023-02-28T11:33:02.623Z,7.60
2023-02-28T11:35:35.744Z,7.70
2023-02-28T11:38:04.415Z,7.80
2023-02-28T11:40:42.278Z,7.90
2023-02-28T11:43:26.537Z,8.00
2023-02-28T11:46:11.768Z,8.20
2023-02-28T11:48:48.758Z,8.30
2023-02-28T11:51:23.403Z,8.40
2023-02-28T11:54:01.690Z,8.50
2023-02-28T11:56:35.459Z,8.70
2023-02-28T11:59:19.206Z,8.80
2023-02-28T12:02:09.570Z,8.90
2023-02-28T12:04:49.595Z,9.00
2023-02-28T12:07:27.012Z,9.10
2023-02-28T12:10:06.351Z,9.30
2023-02-28T12:12:47.540Z,9.40
2023-02-28T12:15:36.183Z,9.60
2023-02-28T12:18:30.248Z,9.70
2023-02-28T12:21:06.757Z,9.90
2023-02-28T12:23:52.927Z,10.10
2023-02-28T12:26:25.627Z,10.20
2023-02-28T12:28:59.003Z,10.30
2023-02-28T12:31:31.813Z,10.50
2023-02-28T12:34:05.145Z,10.60
2023-02-28T12:36:33.782Z,10.70
2023-02-28T12:39:06.480Z,10.80
2023-02-28T12:41:40.051Z,10.90
2023-02-28T12:44:13.811Z,11.10
2023-02-28T12:46:46.677Z,11.20
2023-02-28T12:49:19.857Z,11.30
2023-02-28T12:51:49.434Z,11.40
2023-02-28T12:54:26.988Z,11.60
2023-02-28T12:57:05.860Z,11.70
2023-02-28T12:59:38.861Z,11.80
2023-02-28T13:02:31.599Z,12.00
2023-02-28T13:05:33.576Z,12.10
2023-02-28T13:08:38.996Z,12.30
2023-02-28T13:11:20.998Z,12.40
2023-02-28T13:13:50.022Z,12.60
2023-02-28T13:16:19.221Z,12.70
2023-02-28T13:18:49.652Z,12.80
2023-02-28T13:21:25.939Z,13.00
2023-02-28T13:24:04.333Z,13.10
2023-02-28T13:27:32.927Z,13.20
2023-02-28T13:30:01.957Z,13.40
2023-02-28T13:32:37.676Z,13.50
2023-02-28T13:35:37.930Z,13.60
2023-02-28T13:38:36.223Z,13.70
2023-02-28T13:41:37.898Z,13.80
2023-02-28T13:44:09.029Z,13.90
2023-02-28T13:46:39.826Z,14.00
2023-02-28T13:49:29.097Z,14.20
2023-02-28T13:52:09.895Z,14.30
2023-02-28T13:54:47.409Z,14.40
2023-02-28T13:57:26.177Z,14.50
2023-02-28T14:00:09.669Z,14.70
2023-02-28T14:02:55.571Z,14.80
2023-02-28T14:05:27.527Z,14.90
2023-02-28T14:07:59.056Z,15.00
2023-02-28T14:10:31.644Z,15.10
2023-02-28T14:13:05.927Z,15.10
2023-02-28T14:15:43.858Z,15.30
2023-02-28T14:18:36.683Z,15.40
2023-02-28T14:21:19.175Z,15.50
2023-02-28T14:24:14.490Z,15.60
2023-02-28T14:27:09.609Z,15.70
2023-02-28T14:30:08.418Z,15.80
2023-02-28T14:32:47.093Z,15.90
2023-02-28T14:35:31.474Z,16.00
2023-02-28T14:38:00.111Z,16.10
2023-02-28T14:40:31.979Z,16.10
2023-02-28T14:43:02.180Z,16.20
2023-02-28T14:45:32.391Z,16.30
2023-02-28T14:48:04.266Z,16.30
2023-02-28T14:50:34.623Z,16.40
2023-02-28T14:53:03.934Z,16.40
2023-02-28T14:55:34.219Z,16.40
2023-02-28T14:58:05.654Z,16.50
2023-02-28T15:00:34.851Z,16.50
2023-02-28T15:03:22.079Z,16.50
2023-02-28T15:05:58.431Z,16.50
2023-02-28T15:08:30.430Z,16.60
2023-02-28T15:11:01.958Z,16.60
2023-02-28T15:13:39.710Z,16.60
2023-02-28T15:16:12.221Z,16.60
2023-02-28T15:18:49.630Z,16.60
2023-02-28T15:21:21.777Z,16.60
2023-02-28T15:23:54.888Z,16.60
2023-02-28T15:26:27.067Z,16.50
2023-02-28T15:29:01.810Z,16.50
2023-02-28T15:31:43.844Z,16.50
2023-02-28T15:34:23.296Z,16.50
2023-02-28T15:36:52.910Z,16.50
2023-02-28T15:39:25.419Z,16.40
2023-02-28T15:41:53.745Z,16.30
2023-02-28T15:44:31.273Z,16.20
2023-02-28T15:47:05.163Z,16.00
2023-02-28T15:49:45.250Z,15.80
2023-02-28T15:52:19.045Z,15.60
2023-02-28T15:54:49.112Z,15.30
2023-02-28T15:57:21.758Z,15.00
2023-02-28T15:59:54.848Z,14.60
2023-02-28T16:02:25.100Z,14.40
2023-02-28T16:05:03.763Z,14.10
2023-02-28T16:07:32.396Z,13.80
2023-02-28T16:10:00.739Z,13.50
2023-02-28T16:12:31.694Z,13.30
2023-02-28T16:15:03.507Z,13.00
2023-02-28T16:17:35.355Z,12.80
2023-02-28T16:20:15.390Z,12.50
2023-02-28T16:22:44.015Z,12.30
2023-02-28T16:25:14.837Z,12.10
2023-02-28T16:27:44.705Z,12.00
2023-02-28T16:30:21.409Z,11.80
2023-02-28T16:32:50.134Z,11.60
2023-02-28T16:35:20.136Z,11.40
2023-02-28T16:37:49.048Z,11.20
2023-02-28T16:40:19.758Z,11.10
2023-02-28T16:42:48.877Z,11.00
2023-02-28T16:45:20.845Z,10.80
2023-02-28T16:47:50.729Z,10.70
2023-02-28T16:50:22.636Z,10.50
2023-02-28T16:52:53.597Z,10.40
2023-02-28T16:55:22.147Z,10.30
2023-02-28T16:57:54.413Z,10.20
2023-02-28T17:00:23.520Z,10.00
2023-02-28T17:02:56.562Z,9.90
2023-02-28T17:05:26.857Z,9.80
2023-02-28T17:07:55.118Z,9.60
2023-02-28T17:10:26.095Z,9.60
2023-02-28T17:12:58.318Z,9.50
2023-02-28T17:15:32.309Z,9.40
2023-02-28T17:18:00.509Z,9.30
2023-02-28T17:20:30.429Z,9.20
2023-02-28T17:22:59.119Z,9.10
2023-02-28T17:25:27.251Z,9.00
2023-02-28T17:27:56.164Z,8.90
2023-02-28T17:30:28.140Z,8.80
2023-02-28T17:32:56.995Z,8.70
2023-02-28T17:35:27.679Z,8.60
2023-02-28T17:37:57.590Z,8.50
2023-02-28T17:40:26.383Z,8.40
2023-02-28T17:42:56.185Z,8.30
2023-02-28T17:45:26.780Z,8.30
2023-02-28T17:47:54.843Z,8.20
2023-02-28T17:50:24.120Z,8.10
2023-02-28T17:52:52.978Z,8.10
2023-02-28T17:55:23.601Z,8.00
2023-02-28T17:57:51.657Z,8.00
2023-02-28T18:00:23.196Z,8.00
2023-02-28T18:02:51.575Z,7.90
2023-02-28T18:05:19.897Z,7.80
2023-02-28T18:07:48.047Z,7.80
2023-02-28T18:10:20.475Z,7.70
2023-02-28T18:12:51.066Z,7.70
2023-02-28T18:15:22.497Z,7.60
2023-02-28T18:17:51.330Z,7.50
2023-02-28T18:20:20.676Z,7.50
2023-02-28T18:22:50.013Z,7.50
2023-02-28T18:25:18.245Z,7.40
2023-02-28T18:27:58.658Z,7.40
2023-02-28T18:30:31.744Z,7.30
2023-02-28T18:33:01.162Z,7.30
2023-02-28T18:35:40.874Z,7.20
2023-02-28T18:38:12.324Z,7.20
2023-02-28T18:40:41.127Z,7.10
2023-02-28T18:43:09.595Z,7.10
2023-02-28T18:45:42.634Z,7.00
2023-02-28T18:48:10.702Z,7.00
2023-02-28T18:50:40.027Z,7.00
2023-02-28T18:53:08.163Z,6.90
2023-02-28T18:55:37.200Z,6.80
2023-02-28T18:58:05.380Z,6.70
2023-02-28T19:00:33.685Z,6.70
2023-02-28T19:03:03.935Z,6.60
2023-02-28T19:05:34.474Z,6.60
2023-02-28T19:08:03.200Z,6.60
2023-02-28T19:10:32.906Z,6.50
2023-02-28T19:13:01.455Z,6.50
2023-02-28T19:15:30.353Z,6.50
2023-02-28T19:17:58.412Z,6.40
2023-02-28T19:20:28.351Z,6.40
2023-02-28T19:22:56.896Z,6.30
2023-02-28T19:25:25.239Z,6.30
2023-02-28T19:27:54.960Z,6.30
2023-02-28T19:30:23.581Z,6.20
2023-02-28T19:32:55.696Z,6.20
2023-02-28T19:35:24.537Z,6.20
2023-02-28T19:37:53.997Z,6.10
2023-02-28T19:40:22.571Z,6.10
2023-02-28T19:42:51.679Z,6.10
2023-02-28T19:45:19.756Z,6.10
2023-02-28T19:47:48.578Z,6.00
2023-02-28T19:50:17.109Z,6.00
2023-02-28T19:52:46.927Z,6.00
2023-02-28T19:55:16.881Z,5.90
2023-02-28T19:57:45.731Z,5.90
2023-02-28T20:00:16.951Z,5.90
2023-02-28T20:02:45.740Z,5.90
2023-02-28T20:05:13.814Z,5.80
2023-02-28T20:07:42.686Z,5.80
2023-02-28T20:10:12.328Z,5.80
2023-02-28T20:12:42.238Z,5.80
2023-02-28T20:15:12.176Z,5.70
2023-02-28T20:17:43.915Z,5.70
2023-02-28T20:20:13.017Z,5.70
2023-02-28T20:22:42.303Z,5.70
2023-02-28T20:25:11.535Z,5.70
2023-02-28T20:27:41.542Z,5.60
2023-02-28T20:30:11.243Z,5.60
2023-02-28T20:32:40.413Z,5.60
2023-02-28T20:35:11.717Z,5.50
2023-02-28T20:37:40.216Z,5.50
2023-02-28T20:40:10.093Z,5.50
2023-02-28T20:42:39.637Z,5.50
2023-02-28T20:45:10.634Z,5.40
2023-02-28T20:47:38.713Z,5.40
2023-02-28T20:50:07.882Z,5.40
2023-02-28T20:52:36.039Z,5.30
2023-02-28T20:55:04.565Z,5.30
2023-02-28T20:57:32.828Z,5.30
2023-02-28T21:00:01.028Z,5.30
2023-02-28T21:02:31.004Z,5.30
2023-02-28T21:04:59.078Z,5.20
2023-02-28T21:07:28.932Z,5.20
2023-02-28T21:09:57.527Z,5.20
2023-02-28T21:12:26.155Z,5.20
2023-02-28T21:14:54.303Z,5.10
2023-02-28T21:17:22.839Z,5.10
2023-02-28T21:19:52.414Z,5.10
2023-02-28T21:22:20.975Z,5.10
2023-02-28T21:24:49.497Z,5.00
2023-02-28T21:27:17.571Z,5.10
2023-02-28T21:29:46.119Z,5.10
2023-02-28T21:32:15.373Z,5.00
2023-02-28T21:34:43.537Z,5.00
2023-02-28T21:37:13.971Z,4.90
2023-02-28T21:39:42.564Z,5.00
2023-02-28T21:42:10.632Z,4.90
2023-02-28T21:44:39.199Z,4.90
2023-02-28T21:47:07.732Z,4.90
2023-02-28T21:49:36.439Z,4.90
2023-02-28T21:52:04.830Z,4.90
2023-02-28T21:54:34.291Z,4.90
2023-02-28T21:57:02.971Z,4.90
2023-02-28T21:59:31.211Z,4.80
2023-02-28T22:02:02.696Z,4.80
2023-02-28T22:04:31.221Z,4.70
2023-02-28T22:06:59.236Z,4.70
2023-02-28T22:09:27.593Z,4.70
2023-02-28T22:11:57.878Z,4.70
2023-02-28T22:14:26.545Z,4.60
2023-02-28T22:16:56.892Z,4.60
2023-02-28T22:19:28.297Z,4.60
2023-02-28T22:21:57.077Z,4.50
2023-02-28T22:24:25.187Z,4.50
2023-02-28T22:26:54.087Z,4.40
2023-02-28T22:29:23.955Z,4.40
2023-02-28T22:31:52.585Z,4.40
2023-02-28T22:34:21.190Z,4.40
2023-02-28T22:36:49.294Z,4.40
2023-02-28T22:39:18.076Z,4.40
2023-02-28T22:41:46.198Z,4.30
2023-02-28T22:44:14.321Z,4.30
2023-02-28T22:46:44.440Z,4.30
2023-02-28T22:49:12.528Z,4.30
2023-02-28T22:51:41.091Z,4.30
2023-02-28T22:54:10.622Z,4.20
2023-02-28T22:56:38.745Z,4.20
2023-02-28T22:59:06.852Z,4.20
2023-02-28T23:01:36.045Z,4.10
2023-02-28T23:04:05.848Z,4.10
2023-02-28T23:06:38.241Z,4.10
2023-02-28T23:09:08.457Z,4.10
2023-02-28T23:11:40.816Z,4.00
2023-02-28T23:14:10.025Z,4.00
2023-02-28T23:16:40.747Z,4.00
2023-02-28T23:19:12.755Z,4.00
2023-02-28T23:21:42.008Z,4.00
2023-02-28T23:24:12.323Z,4.00
2023-02-28T23:26:42.987Z,3.90
2023-02-28T23:29:11.650Z,3.90
2023-02-28T23:31:40.481Z,3.90
2023-02-28T23:34:10.819Z,3.90
2023-02-28T23:36:40.431Z,3.80
2023-02-28T23:39:09.446Z,3.80
2023-02-28T23:41:37.615Z,3.80
2023-02-28T23:44:05.841Z,3.80
2023-02-28T23:46:33.901Z,3.80
2023-02-28T23:49:02.416Z,3.70
2023-02-28T23:51:31.888Z,3.70
2023-02-28T23:54:00.481Z,3.70
2023-02-28T23:56:29.246Z,3.70
2023-02-28T23:58:58.686Z,3.70
